Port Angeles, WA

11:25 PM PST on December 09, 2016 (GMT -0800)
Fairchild International | | Change Station

Elev 289 ft 48.12 °N, 123.50 °W | Updated 32 minutes ago

Light Rain
Light Rain
34 °F
Feels Like 28 °F
N
7
Wind Variable Wind from SSE

Today
High -- | Low -- °F
--% Chance of Precip.
Yesterday
High -- | Low -- °F
Precip. -- in
Pressure 29.78 in
Visibility 10.0 miles
Clouds Mostly Cloudy 3800 ft
Mostly Cloudy 7000 ft
Windchill 28 °F
Dew Point 33 °F
Humidity 96%
Rainfall 0.20 in
Snow Depth Not available.
7:52 AM 4:20 PM
Waxing Gibbous, 81% visible
METAR KCLM 100653Z AUTO 15006KT 10SM -RA BKN038 BKN070 01/01 A2976 RMK AO2 RAB21 SLP082 P0001 T00110006
Pressure 29.78 in
Visibility 10.0 miles
Clouds Mostly Cloudy 3800 ft
Mostly Cloudy 7000 ft
Windchill 28 °F
Dew Point 33 °F
Humidity 96%
Rainfall 0.20 in
Snow Depth Not available.
7:52 AM 4:20 PM
Waxing Gibbous, 81% visible
METAR KCLM 100653Z AUTO 15006KT 10SM -RA BKN038 BKN070 01/01 A2976 RMK AO2 RAB21 SLP082 P0001 T00110006

10-Day Weather Forecast

Almanac

Astronomy

Dec. 09, 2016 Rise Set
Actual Time
Civil Twilight
Nautical Twilight
Astronomical Twilight
Moon
Length of Visible Light
Length of Day
Tomorrow will be .
, % of the Moon is Illuminated

Today's Extremes

State Highs State Lows

Community

WunderPhotos

Upload Photos

1,956,527 photos uploaded!

WunderBlog® & News

Nearby

Air Quality

  Air Quality AQ Index Pollutant
Not available.

Snow Depth

Station Depth Elevation

Earthquake Activity

City Distance Mag. Time & Date
Minimum magnitude displayed is 2.5.

Coastal Water Temperatures

Place Temperature

Stations

Nearby Weather Stations

Station Location Temp. Windchill Dew Point Humidity Wind Precip. Elev Updated Type
                   

Watches & Warnings

There are currently no watches in effect.